createdAt,value
2018-12-31T00:00:46.150Z,6.10
2018-12-31T00:03:15.519Z,6.00
2018-12-31T00:05:44.882Z,6.00
2018-12-31T00:08:14.256Z,6.00
2018-12-31T00:10:43.628Z,6.00
2018-12-31T00:13:13.007Z,5.90
2018-12-31T00:15:42.497Z,5.90
2018-12-31T00:18:11.902Z,5.90
2018-12-31T00:20:41.291Z,5.90
2018-12-31T00:23:10.786Z,5.80
2018-12-31T00:25:40.199Z,5.80
2018-12-31T00:28:09.533Z,5.80
2018-12-31T00:30:39.971Z,5.80
2018-12-31T00:33:09.419Z,5.80
2018-12-31T00:35:38.837Z,5.80
2018-12-31T00:38:08.258Z,5.80
2018-12-31T00:40:37.613Z,5.80
2018-12-31T00:43:07.011Z,5.80
2018-12-31T00:45:36.589Z,5.80
2018-12-31T00:48:06.050Z,5.80
2018-12-31T00:50:35.487Z,5.80
2018-12-31T00:53:04.957Z,5.90
2018-12-31T00:55:34.984Z,5.80
2018-12-31T00:58:04.635Z,5.90
2018-12-31T01:00:34.119Z,5.90
2018-12-31T01:03:03.518Z,5.90
2018-12-31T01:05:32.947Z,5.90
2018-12-31T01:08:02.442Z,5.90
2018-12-31T01:10:31.894Z,5.90
2018-12-31T01:13:01.356Z,5.90
2018-12-31T01:15:30.852Z,5.90
2018-12-31T01:18:00.190Z,5.90
2018-12-31T01:20:29.569Z,5.90
2018-12-31T01:22:58.954Z,5.90
2018-12-31T01:25:28.294Z,5.90
2018-12-31T01:27:57.669Z,5.90
2018-12-31T01:30:27.156Z,5.90
2018-12-31T01:32:56.533Z,5.90
2018-12-31T01:35:25.910Z,5.90
2018-12-31T01:37:55.365Z,5.90
2018-12-31T01:40:24.743Z,5.90
2018-12-31T01:42:54.192Z,5.90
2018-12-31T01:45:23.664Z,5.90
2018-12-31T01:47:53.044Z,5.90
2018-12-31T01:50:22.473Z,5.90
2018-12-31T01:52:51.976Z,5.90
2018-12-31T01:55:21.405Z,5.90
2018-12-31T01:57:50.757Z,5.90
2018-12-31T02:00:20.173Z,5.90
2018-12-31T02:02:49.551Z,5.90
2018-12-31T02:05:18.964Z,5.90
2018-12-31T02:07:48.442Z,5.90
2018-12-31T02:10:17.862Z,5.90
2018-12-31T02:12:47.267Z,5.90
2018-12-31T02:15:16.721Z,5.90
2018-12-31T02:17:46.073Z,5.90
2018-12-31T02:20:15.480Z,5.90
2018-12-31T02:22:44.909Z,5.90
2018-12-31T02:25:14.368Z,5.90
2018-12-31T02:27:43.783Z,5.90
2018-12-31T02:30:13.219Z,5.90
2018-12-31T02:32:43.566Z,5.90
2018-12-31T02:35:12.978Z,5.90
2018-12-31T02:37:42.381Z,5.90
2018-12-31T02:40:11.849Z,5.90
2018-12-31T02:42:41.228Z,5.90
2018-12-31T02:45:10.711Z,5.90
2018-12-31T02:47:40.163Z,5.90
2018-12-31T02:50:09.571Z,5.90
2018-12-31T02:52:38.964Z,5.90
2018-12-31T02:55:08.346Z,5.90
2018-12-31T02:57:37.768Z,5.90
2018-12-31T03:00:07.527Z,5.90
2018-12-31T03:02:36.885Z,5.90
2018-12-31T03:05:06.454Z,5.90
2018-12-31T03:07:35.968Z,5.90
2018-12-31T03:10:05.613Z,5.90
2018-12-31T03:12:34.973Z,5.90
2018-12-31T03:15:04.425Z,5.90
2018-12-31T03:17:33.842Z,5.90
2018-12-31T03:20:03.271Z,5.90
2018-12-31T03:22:32.737Z,5.90
2018-12-31T03:25:02.094Z,5.90
2018-12-31T03:27:31.487Z,5.80
2018-12-31T03:30:00.958Z,5.90
2018-12-31T03:32:30.380Z,5.90
2018-12-31T03:34:59.792Z,5.90
2018-12-31T03:37:29.234Z,5.80
2018-12-31T03:39:58.620Z,5.80
2018-12-31T03:42:28.066Z,5.80
2018-12-31T03:44:57.445Z,5.70
2018-12-31T03:47:26.828Z,5.70
2018-12-31T03:49:56.640Z,5.70
2018-12-31T03:52:26.016Z,5.70
2018-12-31T03:54:55.338Z,5.70
2018-12-31T03:57:24.734Z,5.70
2018-12-31T03:59:54.110Z,5.70
2018-12-31T04:02:23.473Z,5.70
2018-12-31T04:04:52.832Z,5.70
2018-12-31T04:07:22.297Z,5.80
2018-12-31T04:09:51.701Z,5.70
2018-12-31T04:12:21.042Z,5.70
2018-12-31T04:14:50.462Z,5.70
2018-12-31T04:17:19.893Z,5.70
2018-12-31T04:19:49.225Z,5.60
2018-12-31T04:22:18.636Z,5.60
2018-12-31T04:24:47.952Z,5.60
2018-12-31T04:27:17.279Z,5.60
2018-12-31T04:29:46.784Z,5.50
2018-12-31T04:32:16.159Z,5.50
2018-12-31T04:34:45.527Z,5.50
2018-12-31T04:37:14.945Z,5.50
2018-12-31T04:39:44.298Z,5.40
2018-12-31T04:42:13.675Z,5.40
2018-12-31T04:44:43.178Z,5.30
2018-12-31T04:47:12.562Z,5.30
2018-12-31T04:49:41.877Z,5.30
2018-12-31T04:52:11.277Z,5.40
2018-12-31T04:54:40.722Z,5.40
2018-12-31T04:57:10.163Z,5.40
2018-12-31T04:59:39.649Z,5.40
2018-12-31T05:02:09.051Z,5.40
2018-12-31T05:04:38.453Z,5.40
2018-12-31T05:07:07.828Z,5.40
2018-12-31T05:09:37.155Z,5.40
2018-12-31T05:12:06.592Z,5.50
2018-12-31T05:14:35.993Z,5.50
2018-12-31T05:17:05.357Z,5.50
2018-12-31T05:19:34.708Z,5.50
2018-12-31T05:22:04.135Z,5.50
2018-12-31T05:24:33.528Z,5.50
2018-12-31T05:27:02.974Z,5.50
2018-12-31T05:29:32.456Z,5.40
2018-12-31T05:32:01.820Z,5.40
2018-12-31T05:34:31.194Z,5.40
2018-12-31T05:37:00.631Z,5.40
2018-12-31T05:39:30.055Z,5.40
2018-12-31T05:41:59.499Z,5.30
2018-12-31T05:44:28.966Z,5.30
2018-12-31T05:46:58.299Z,5.30
2018-12-31T05:49:27.694Z,5.30
2018-12-31T05:51:57.094Z,5.30
2018-12-31T05:54:26.452Z,5.30
2018-12-31T05:56:55.883Z,5.30
2018-12-31T05:59:25.377Z,5.30
2018-12-31T06:01:54.769Z,5.30
2018-12-31T06:04:24.188Z,5.30
2018-12-31T06:06:53.606Z,5.20
2018-12-31T06:09:23.056Z,5.20
2018-12-31T06:11:52.455Z,5.20
2018-12-31T06:14:21.887Z,5.20
2018-12-31T06:16:51.309Z,5.20
2018-12-31T06:19:20.751Z,5.10
2018-12-31T06:21:50.247Z,5.10
2018-12-31T06:24:19.654Z,5.10
2018-12-31T06:26:49.033Z,5.10
2018-12-31T06:29:18.539Z,5.00
2018-12-31T06:31:47.977Z,5.00
2018-12-31T06:34:17.403Z,5.00
2018-12-31T06:36:46.845Z,5.00
2018-12-31T06:39:16.193Z,5.00
2018-12-31T06:41:45.567Z,5.00
2018-12-31T06:44:14.950Z,5.00
2018-12-31T06:46:44.374Z,5.00
2018-12-31T06:49:13.746Z,5.00
2018-12-31T06:51:43.114Z,5.00
2018-12-31T06:54:12.439Z,5.00
2018-12-31T06:56:41.747Z,4.90
2018-12-31T06:59:11.180Z,4.90
2018-12-31T07:01:40.527Z,4.90
2018-12-31T07:04:09.964Z,4.90
2018-12-31T07:06:39.354Z,4.90
2018-12-31T07:09:08.725Z,4.90
2018-12-31T07:11:38.060Z,4.90
2018-12-31T07:14:07.468Z,4.90
2018-12-31T07:16:36.887Z,4.90
2018-12-31T07:19:06.237Z,5.00
2018-12-31T07:21:35.827Z,5.00
2018-12-31T07:24:05.261Z,5.00
2018-12-31T07:26:34.706Z,5.00
2018-12-31T07:29:04.138Z,5.00
2018-12-31T07:31:33.505Z,5.00
2018-12-31T07:34:02.865Z,5.00
2018-12-31T07:36:32.348Z,5.00
2018-12-31T07:39:02.797Z,5.10
2018-12-31T07:41:32.223Z,5.10
2018-12-31T07:44:01.709Z,5.10
2018-12-31T07:46:31.051Z,5.10
2018-12-31T07:49:00.491Z,5.20
2018-12-31T07:51:29.996Z,5.20
2018-12-31T07:53:59.439Z,5.20
2018-12-31T07:56:28.894Z,5.30
2018-12-31T07:58:58.361Z,5.30
2018-12-31T08:01:27.792Z,5.40
2018-12-31T08:03:57.163Z,5.40
2018-12-31T08:06:26.666Z,5.40
2018-12-31T08:08:56.099Z,5.50
2018-12-31T08:11:25.437Z,5.50
2018-12-31T08:13:54.931Z,5.50
2018-12-31T08:16:24.345Z,5.50
2018-12-31T08:18:53.745Z,5.50
2018-12-31T08:21:23.213Z,5.60
2018-12-31T08:23:52.923Z,5.60
2018-12-31T08:26:22.341Z,5.60
2018-12-31T08:28:51.993Z,5.60
2018-12-31T08:31:21.351Z,5.70
2018-12-31T08:33:50.773Z,5.70
2018-12-31T08:36:21.813Z,5.70
2018-12-31T08:38:51.891Z,5.80
2018-12-31T08:41:22.334Z,5.80
2018-12-31T08:43:51.784Z,5.80
2018-12-31T08:46:21.153Z,5.90
2018-12-31T08:48:50.575Z,5.90
2018-12-31T08:51:20.053Z,5.90
2018-12-31T08:53:49.413Z,6.00
2018-12-31T08:56:18.848Z,6.00
2018-12-31T08:58:48.366Z,6.00
2018-12-31T09:01:17.732Z,6.10
2018-12-31T09:03:47.174Z,6.10
2018-12-31T09:06:16.705Z,6.20
2018-12-31T09:08:46.161Z,6.30
2018-12-31T09:11:15.557Z,6.30
2018-12-31T09:13:45.020Z,6.30
2018-12-31T09:16:14.459Z,6.40
2018-12-31T09:18:43.872Z,6.40
2018-12-31T09:21:13.274Z,6.50
2018-12-31T09:23:42.623Z,6.60
2018-12-31T09:26:12.069Z,6.60
2018-12-31T09:28:41.631Z,6.70
2018-12-31T09:31:11.078Z,6.70
2018-12-31T09:33:40.442Z,6.80
2018-12-31T09:36:09.853Z,6.80
2018-12-31T09:38:39.196Z,6.90
2018-12-31T09:41:08.561Z,6.90
2018-12-31T09:43:38.103Z,7.00
2018-12-31T09:46:07.534Z,7.00
2018-12-31T09:48:37.004Z,7.20
2018-12-31T09:51:06.495Z,7.30
2018-12-31T09:53:35.878Z,7.30
2018-12-31T09:56:05.272Z,7.40
2018-12-31T09:58:36.343Z,7.50
2018-12-31T10:01:05.711Z,7.50
2018-12-31T10:03:35.061Z,7.50
2018-12-31T10:06:04.458Z,7.50
2018-12-31T10:08:33.814Z,7.60
2018-12-31T10:11:03.198Z,7.60
2018-12-31T10:13:32.921Z,7.60
2018-12-31T10:16:02.357Z,7.60
2018-12-31T10:18:31.773Z,7.60
2018-12-31T10:21:01.174Z,7.60
2018-12-31T10:23:30.470Z,7.60
2018-12-31T10:25:59.813Z,7.60
2018-12-31T10:28:29.311Z,7.60
2018-12-31T10:30:58.780Z,7.60
2018-12-31T10:33:28.501Z,7.60
2018-12-31T10:35:58.006Z,7.70
2018-12-31T10:38:27.357Z,7.70
2018-12-31T10:40:56.678Z,7.70
2018-12-31T10:43:26.142Z,7.70
2018-12-31T10:45:55.640Z,7.70
2018-12-31T10:48:25.038Z,7.70
2018-12-31T10:50:54.434Z,7.70
2018-12-31T10:53:23.929Z,7.80
2018-12-31T10:55:53.278Z,7.80
2018-12-31T10:58:22.783Z,7.80
2018-12-31T11:00:52.207Z,7.80
2018-12-31T11:03:21.785Z,7.90
2018-12-31T11:05:51.154Z,7.90
2018-12-31T11:08:20.510Z,7.90
2018-12-31T11:10:49.880Z,8.00
2018-12-31T11:13:19.373Z,8.10
2018-12-31T11:15:48.787Z,8.10
2018-12-31T11:18:18.157Z,8.20
2018-12-31T11:20:47.674Z,8.20
2018-12-31T11:23:17.032Z,8.20
2018-12-31T11:25:46.451Z,8.30
2018-12-31T11:28:15.894Z,8.30
2018-12-31T11:30:45.261Z,8.30
2018-12-31T11:33:14.653Z,8.40
2018-12-31T11:35:44.153Z,8.40
2018-12-31T11:38:13.639Z,8.50
2018-12-31T11:40:43.101Z,8.60
2018-12-31T11:43:12.558Z,8.60
2018-12-31T11:45:43.192Z,8.60
2018-12-31T11:48:12.607Z,8.60
2018-12-31T11:50:42.011Z,8.60
2018-12-31T11:53:11.343Z,8.60
2018-12-31T11:55:40.670Z,8.60
2018-12-31T11:58:10.091Z,8.60
2018-12-31T12:00:39.457Z,8.70
2018-12-31T12:03:08.948Z,8.70
2018-12-31T12:05:38.423Z,8.80
2018-12-31T12:08:07.845Z,8.80
2018-12-31T12:10:37.289Z,8.90
2018-12-31T12:13:06.689Z,8.90
2018-12-31T12:15:36.094Z,8.90
2018-12-31T12:18:05.510Z,8.80
2018-12-31T12:20:34.940Z,8.80
2018-12-31T12:23:04.399Z,8.80
2018-12-31T12:25:33.827Z,8.80
2018-12-31T12:28:05.147Z,8.80
2018-12-31T12:30:34.402Z,8.70
2018-12-31T12:33:03.773Z,8.70
2018-12-31T12:35:33.163Z,8.60
2018-12-31T12:38:02.584Z,8.60
2018-12-31T12:40:31.961Z,8.50
2018-12-31T12:43:04.409Z,8.40
2018-12-31T12:45:33.731Z,8.30
2018-12-31T12:48:03.156Z,8.30
2018-12-31T12:50:32.607Z,8.20
2018-12-31T12:53:02.113Z,8.20
2018-12-31T12:55:31.531Z,8.20
2018-12-31T12:58:01.041Z,8.20
2018-12-31T13:00:30.420Z,8.20
2018-12-31T13:02:59.824Z,8.20
2018-12-31T13:05:29.351Z,8.20
2018-12-31T13:07:58.792Z,8.20
2018-12-31T13:10:28.248Z,8.20
2018-12-31T13:12:57.761Z,8.20
2018-12-31T13:15:27.207Z,8.20
2018-12-31T13:17:56.712Z,8.30
2018-12-31T13:20:26.321Z,8.30
2018-12-31T13:22:55.750Z,8.30
2018-12-31T13:25:25.170Z,8.40
2018-12-31T13:27:55.231Z,8.40
2018-12-31T13:30:24.664Z,8.40
2018-12-31T13:32:54.102Z,8.40
2018-12-31T13:35:23.634Z,8.40
2018-12-31T13:37:53.035Z,8.40
2018-12-31T13:40:22.917Z,8.40
2018-12-31T13:42:52.364Z,8.40
2018-12-31T13:45:21.820Z,8.40
2018-12-31T13:47:51.270Z,8.50
2018-12-31T13:50:20.807Z,8.50
2018-12-31T13:52:50.241Z,8.50
2018-12-31T13:55:19.630Z,8.50
2018-12-31T13:57:49.075Z,8.50
2018-12-31T14:00:18.531Z,8.50
2018-12-31T14:02:47.995Z,8.50
2018-12-31T14:05:17.526Z,8.50
2018-12-31T14:07:46.898Z,8.50
2018-12-31T14:10:16.262Z,8.50
2018-12-31T14:12:45.743Z,8.50
2018-12-31T14:15:15.161Z,8.50
2018-12-31T14:17:44.509Z,8.50
2018-12-31T14:20:13.987Z,8.50
2018-12-31T14:22:43.364Z,8.60
2018-12-31T14:25:12.820Z,8.50
2018-12-31T14:27:42.677Z,8.50
2018-12-31T14:30:12.104Z,8.50
2018-12-31T14:32:41.528Z,8.50
2018-12-31T14:35:11.010Z,8.50
2018-12-31T14:37:40.411Z,8.50
2018-12-31T14:40:10.154Z,8.40
2018-12-31T14:42:39.637Z,8.40
2018-12-31T14:45:09.118Z,8.40
2018-12-31T14:47:38.593Z,8.40
2018-12-31T14:50:08.175Z,8.40
2018-12-31T14:52:37.624Z,8.30
2018-12-31T14:55:07.073Z,8.30
2018-12-31T14:57:36.573Z,8.30
2018-12-31T15:00:08.927Z,8.30
2018-12-31T15:02:38.291Z,8.30
2018-12-31T15:05:07.690Z,8.20
2018-12-31T15:07:37.049Z,8.20
2018-12-31T15:10:07.304Z,8.20
2018-12-31T15:12:36.768Z,8.20
2018-12-31T15:15:07.357Z,8.10
2018-12-31T15:17:36.791Z,8.20
2018-12-31T15:20:07.709Z,8.10
2018-12-31T15:22:37.149Z,8.00
2018-12-31T15:25:06.559Z,8.00
2018-12-31T15:27:35.995Z,8.00
2018-12-31T15:30:06.694Z,8.00
2018-12-31T15:32:36.129Z,7.90
2018-12-31T15:35:06.161Z,7.90
2018-12-31T15:37:35.587Z,7.90
2018-12-31T15:40:06.684Z,7.90
2018-12-31T15:42:36.481Z,7.80
2018-12-31T15:45:06.883Z,7.80
2018-12-31T15:47:36.318Z,7.80
2018-12-31T15:50:08.197Z,7.70
2018-12-31T15:52:37.653Z,7.70
2018-12-31T15:55:07.009Z,7.70
2018-12-31T15:57:36.493Z,7.60
2018-12-31T16:00:07.832Z,7.60
2018-12-31T16:02:37.938Z,7.60
2018-12-31T16:05:08.239Z,7.60
2018-12-31T16:07:45.412Z,7.50
2018-12-31T16:10:08.774Z,7.50
2018-12-31T16:12:38.244Z,7.50
2018-12-31T16:15:09.248Z,7.40
2018-12-31T16:17:38.679Z,7.40
2018-12-31T16:20:08.484Z,7.30
2018-12-31T16:22:37.917Z,7.30
2018-12-31T16:25:07.665Z,7.30
2018-12-31T16:27:37.170Z,7.20
2018-12-31T16:30:06.800Z,7.20
2018-12-31T16:32:36.567Z,7.10
2018-12-31T16:35:06.082Z,7.00
2018-12-31T16:37:36.002Z,7.00
2018-12-31T16:40:05.786Z,7.00
2018-12-31T16:42:35.265Z,7.00
2018-12-31T16:45:05.043Z,7.00
2018-12-31T16:47:34.454Z,6.90
2018-12-31T16:50:06.910Z,6.90
2018-12-31T16:52:36.356Z,6.90
2018-12-31T16:55:05.891Z,6.90
2018-12-31T16:57:35.373Z,6.90
2018-12-31T17:00:04.952Z,6.80
2018-12-31T17:02:34.374Z,6.80
2018-12-31T17:05:03.872Z,6.80
2018-12-31T17:07:33.304Z,6.80
2018-12-31T17:10:02.781Z,6.80
2018-12-31T17:12:32.267Z,6.80
2018-12-31T17:15:01.748Z,6.70
2018-12-31T17:17:31.150Z,6.70
2018-12-31T17:20:00.651Z,6.70
2018-12-31T17:22:30.067Z,6.70
2018-12-31T17:24:59.505Z,6.70
2018-12-31T17:27:29.013Z,6.60
2018-12-31T17:29:58.460Z,6.60
2018-12-31T17:32:27.909Z,6.50
2018-12-31T17:34:57.428Z,6.40
2018-12-31T17:37:26.963Z,6.40
2018-12-31T17:39:56.399Z,6.40
2018-12-31T17:42:25.893Z,6.40
2018-12-31T17:44:55.325Z,6.30
2018-12-31T17:47:24.799Z,6.40
2018-12-31T17:49:54.278Z,6.30
2018-12-31T17:52:24.936Z,6.30
2018-12-31T17:54:54.382Z,6.30
2018-12-31T17:57:23.872Z,6.30
2018-12-31T17:59:53.307Z,6.30
2018-12-31T18:02:22.755Z,6.20
2018-12-31T18:04:52.307Z,6.20
2018-12-31T18:07:21.717Z,6.20
2018-12-31T18:09:51.157Z,6.20
2018-12-31T18:12:20.653Z,6.10
2018-12-31T18:14:50.078Z,6.10
2018-12-31T18:17:19.518Z,6.10
2018-12-31T18:19:49.015Z,6.10
2018-12-31T18:22:18.457Z,6.10
2018-12-31T18:24:47.884Z,6.10
2018-12-31T18:27:19.821Z,6.10
2018-12-31T18:29:48.943Z,6.00
2018-12-31T18:32:18.395Z,5.90
2018-12-31T18:34:47.843Z,5.70
2018-12-31T18:37:17.277Z,5.70
2018-12-31T18:39:49.254Z,5.60
2018-12-31T18:42:18.681Z,5.60
2018-12-31T18:44:48.736Z,5.50
2018-12-31T18:47:18.172Z,5.50
2018-12-31T18:49:47.666Z,5.40
2018-12-31T18:52:17.099Z,5.40
2018-12-31T18:54:47.528Z,5.40
2018-12-31T18:57:17.008Z,5.40
2018-12-31T18:59:46.513Z,5.30
2018-12-31T19:02:15.971Z,5.30
2018-12-31T19:04:45.445Z,5.30
2018-12-31T19:07:14.888Z,5.30
2018-12-31T19:09:44.316Z,5.30
2018-12-31T19:12:13.821Z,5.30
2018-12-31T19:14:43.252Z,5.30
2018-12-31T19:17:12.707Z,5.30
2018-12-31T19:19:42.187Z,5.30
2018-12-31T19:22:11.621Z,5.30
2018-12-31T19:24:41.056Z,5.30
2018-12-31T19:27:10.559Z,5.30
2018-12-31T19:29:39.996Z,5.30
2018-12-31T19:32:09.419Z,5.30
2018-12-31T19:34:38.904Z,5.30
2018-12-31T19:37:08.336Z,5.30
2018-12-31T19:39:37.750Z,5.30
2018-12-31T19:42:07.244Z,5.30
2018-12-31T19:44:36.605Z,5.20
2018-12-31T19:47:06.019Z,5.30
2018-12-31T19:49:35.543Z,5.20
2018-12-31T19:52:04.956Z,5.20
2018-12-31T19:54:34.380Z,5.20
2018-12-31T19:57:04.768Z,5.20
2018-12-31T19:59:34.184Z,5.20
2018-12-31T20:02:03.824Z,5.20
2018-12-31T20:04:33.321Z,5.10
2018-12-31T20:07:03.535Z,5.00
2018-12-31T20:09:33.224Z,4.90
2018-12-31T20:12:02.719Z,4.80
2018-12-31T20:14:32.163Z,4.80
2018-12-31T20:17:02.097Z,4.70
2018-12-31T20:19:31.604Z,4.70
2018-12-31T20:22:01.046Z,4.70
2018-12-31T20:24:30.489Z,4.70
2018-12-31T20:26:59.962Z,4.70
2018-12-31T20:29:29.367Z,4.70
2018-12-31T20:31:58.813Z,4.70
2018-12-31T20:34:28.307Z,4.70
2018-12-31T20:36:57.782Z,4.70
2018-12-31T20:39:27.220Z,4.70
2018-12-31T20:41:56.701Z,4.70
2018-12-31T20:44:26.568Z,4.70
2018-12-31T20:46:56.000Z,4.70
2018-12-31T20:49:25.474Z,4.70
2018-12-31T20:51:54.890Z,4.70
2018-12-31T20:54:24.268Z,4.70
2018-12-31T20:56:54.011Z,4.60
2018-12-31T20:59:23.497Z,4.60
2018-12-31T21:01:53.732Z,4.60
2018-12-31T21:04:23.498Z,4.60
2018-12-31T21:06:53.640Z,4.60
2018-12-31T21:09:23.511Z,4.60
2018-12-31T21:11:52.935Z,4.60
2018-12-31T21:14:22.374Z,4.60
2018-12-31T21:16:51.811Z,4.60
2018-12-31T21:19:21.296Z,4.60
2018-12-31T21:21:51.205Z,4.60
2018-12-31T21:24:20.604Z,4.60
2018-12-31T21:26:50.101Z,4.60
2018-12-31T21:29:19.513Z,4.60
2018-12-31T21:31:48.910Z,4.60
2018-12-31T21:34:18.688Z,4.50
2018-12-31T21:36:48.112Z,4.50
2018-12-31T21:39:17.541Z,4.40
2018-12-31T21:41:47.056Z,4.30
2018-12-31T21:44:16.414Z,4.30
2018-12-31T21:46:46.031Z,4.30
2018-12-31T21:49:15.521Z,4.20
2018-12-31T21:51:44.951Z,4.20
2018-12-31T21:54:14.407Z,4.20
2018-12-31T21:56:43.906Z,4.20
2018-12-31T21:59:14.446Z,4.20
2018-12-31T22:01:43.900Z,4.20
2018-12-31T22:04:13.365Z,4.20
2018-12-31T22:06:42.810Z,4.20
2018-12-31T22:09:12.194Z,4.20
2018-12-31T22:11:42.173Z,4.10
2018-12-31T22:14:11.627Z,4.20
2018-12-31T22:16:41.905Z,4.10
2018-12-31T22:19:11.311Z,4.20
2018-12-31T22:21:40.748Z,4.10
2018-12-31T22:24:10.788Z,4.00
2018-12-31T22:26:40.285Z,3.90
2018-12-31T22:29:09.721Z,3.80
2018-12-31T22:31:39.201Z,3.70
2018-12-31T22:34:08.650Z,3.70
2018-12-31T22:36:38.462Z,3.70
2018-12-31T22:39:07.904Z,3.70
2018-12-31T22:41:37.390Z,3.70
2018-12-31T22:44:06.803Z,3.70
2018-12-31T22:46:36.200Z,3.70
2018-12-31T22:49:06.307Z,3.80
2018-12-31T22:51:35.703Z,3.80
2018-12-31T22:54:05.118Z,3.80
2018-12-31T22:56:34.556Z,3.80
2018-12-31T22:59:03.965Z,3.80
2018-12-31T23:01:33.793Z,3.70
2018-12-31T23:04:03.232Z,3.70
2018-12-31T23:06:32.664Z,3.70
2018-12-31T23:09:02.166Z,3.70
2018-12-31T23:11:31.657Z,3.70
2018-12-31T23:14:01.123Z,3.80
2018-12-31T23:16:30.501Z,3.80
2018-12-31T23:18:59.998Z,3.80
2018-12-31T23:21:29.441Z,3.80
2018-12-31T23:23:58.881Z,3.80
2018-12-31T23:26:28.381Z,3.80
2018-12-31T23:28:57.835Z,3.80
2018-12-31T23:31:27.205Z,3.80
2018-12-31T23:33:57.473Z,3.90
2018-12-31T23:36:26.889Z,3.90
2018-12-31T23:38:56.339Z,3.90
2018-12-31T23:41:25.832Z,3.90
2018-12-31T23:43:55.247Z,3.90
2018-12-31T23:46:24.665Z,3.90
2018-12-31T23:48:54.403Z,3.90
2018-12-31T23:51:23.853Z,3.90
2018-12-31T23:53:53.268Z,3.90
2018-12-31T23:56:22.746Z,3.90
2018-12-31T23:58:52.181Z,3.80
